Time;durP1;ratioP1;P1;durP2;ratioP2;P2;SDS_P1;SDS_P2;PMS_P1;PMS_P2;Temp;Humidity;BMP_temperature;BMP_pressure;BME280_temperature;BME280_humidity;BME280_pressure;Samples;Min_cycle;Max_cycle;Signal;HPM_P1;HPM_P2
2022/12/08 00:00:19;;;;;;;17.08;14.23;;;6.50;99.90;;;;;;2075539;28;20121;-70
2022/12/08 00:01:21;;;;;;;17.75;14.35;;;6.50;99.90;;;;;;2075361;28;20026;-70
2022/12/08 00:02:22;;;;;;;15.68;14.07;;;6.50;99.90;;;;;;2076070;28;20022;-70
2022/12/08 00:03:22;;;;;;;17.60;14.13;;;6.50;99.90;;;;;;2074860;28;20032;-70
2022/12/08 00:04:23;;;;;;;16.63;14.93;;;6.40;99.90;;;;;;2076668;28;20017;-70
2022/12/08 00:09:29;;;;;;;18.30;16.10;;;6.40;99.90;;;;;;2074878;28;20026;-70
2022/12/08 00:10:29;;;;;;;21.10;15.95;;;6.30;99.90;;;;;;2073724;28;20473;-70
2022/12/08 00:11:30;;;;;;;17.40;15.60;;;6.30;99.90;;;;;;2076689;28;20021;-70
2022/12/08 00:12:30;;;;;;;20.88;17.17;;;6.30;99.90;;;;;;2073629;28;20076;-70
2022/12/08 00:13:31;;;;;;;20.75;16.05;;;6.30;99.90;;;;;;2076833;28;20056;-70
2022/12/08 00:14:34;;;;;;;21.17;17.55;;;6.30;99.90;;;;;;2076375;28;20033;-70
2022/12/08 00:15:34;;;;;;;19.42;17.33;;;6.30;99.90;;;;;;2074962;28;20022;-70
2022/12/08 00:16:35;;;;;;;19.45;15.52;;;6.30;99.90;;;;;;2075276;28;20095;-70
2022/12/08 00:17:35;;;;;;;20.48;16.30;;;6.30;99.90;;;;;;2076065;28;20048;-70
2022/12/08 00:18:36;;;;;;;21.05;17.10;;;6.40;99.90;;;;;;2075402;28;20025;-70
2022/12/08 00:19:38;;;;;;;21.60;17.73;;;6.40;99.90;;;;;;2076106;28;20030;-70
2022/12/08 00:20:38;;;;;;;19.42;17.42;;;6.30;99.90;;;;;;2075241;28;20504;-70
2022/12/08 00:21:39;;;;;;;19.98;17.77;;;6.40;99.90;;;;;;2075342;28;20381;-70
2022/12/08 00:22:39;;;;;;;22.17;18.17;;;6.40;99.90;;;;;;2076697;28;20030;-70
2022/12/08 00:23:40;;;;;;;19.85;17.85;;;6.30;99.90;;;;;;2075258;28;20084;-70
2022/12/08 00:24:43;;;;;;;22.48;17.95;;;6.40;99.90;;;;;;2075658;28;20029;-70
2022/12/08 00:25:44;;;;;;;20.33;18.23;;;6.40;99.90;;;;;;2076650;28;20017;-70
2022/12/08 00:26:45;;;;;;;23.38;18.92;;;6.40;99.90;;;;;;2074653;28;20035;-70
2022/12/08 00:27:45;;;;;;;21.35;19.05;;;6.40;99.90;;;;;;2076266;28;20030;-70
2022/12/08 00:28:46;;;;;;;20.50;18.40;;;6.40;99.90;;;;;;2076705;28;20493;-70
2022/12/08 00:29:47;;;;;;;21.38;19.08;;;6.40;99.90;;;;;;2076287;28;20060;-70
2022/12/08 00:30:47;;;;;;;21.85;19.55;;;6.40;99.90;;;;;;2075825;28;20021;-70
2022/12/08 00:31:48;;;;;;;21.60;19.33;;;6.40;99.90;;;;;;2072155;28;20029;-70
2022/12/08 00:32:48;;;;;;;21.35;18.80;;;6.40;99.90;;;;;;2074526;28;20060;-70
2022/12/08 00:33:49;;;;;;;22.58;19.13;;;6.40;99.90;;;;;;2075675;28;20037;-70
2022/12/08 00:34:49;;;;;;;20.67;18.52;;;6.40;99.90;;;;;;2076121;28;20032;-70
2022/12/08 00:35:50;;;;;;;22.60;18.77;;;6.40;99.90;;;;;;2075817;28;20036;-70
2022/12/08 00:36:50;;;;;;;23.23;19.55;;;6.40;99.90;;;;;;2075699;28;20040;-70
2022/12/08 00:37:51;;;;;;;21.48;18.40;;;6.40;99.90;;;;;;2078762;28;20397;-70
2022/12/08 00:38:51;;;;;;;20.48;18.27;;;6.40;99.90;;;;;;2077886;28;20536;-70
2022/12/08 00:39:52;;;;;;;21.40;19.20;;;6.40;99.90;;;;;;2077699;28;20048;-70
2022/12/08 00:40:52;;;;;;;21.35;18.60;;;6.40;99.90;;;;;;2077058;28;20037;-70
2022/12/08 00:42:11;;;;;;;20.95;18.55;;;6.40;99.90;;;;;;2077426;28;20642;-70
2022/12/08 00:43:12;;;;;;;25.02;19.33;;;6.40;99.90;;;;;;2075776;28;21552;-70
2022/12/08 00:44:17;;;;;;;22.02;19.17;;;6.30;99.90;;;;;;2076928;28;20079;-70
2022/12/08 00:45:18;;;;;;;24.08;19.50;;;6.30;99.90;;;;;;2074308;28;20021;-70
2022/12/08 00:46:18;;;;;;;25.65;20.13;;;6.40;99.90;;;;;;2074216;28;20056;-70
2022/12/08 00:47:19;;;;;;;23.20;19.85;;;6.40;99.90;;;;;;2077352;28;20033;-70
2022/12/08 00:48:19;;;;;;;22.42;20.05;;;6.30;99.90;;;;;;2075749;28;20029;-70
2022/12/08 00:49:20;;;;;;;24.65;20.00;;;6.40;99.90;;;;;;2076684;28;20608;-70
2022/12/08 00:50:20;;;;;;;23.63;20.23;;;6.40;99.90;;;;;;2086171;28;20067;-70
2022/12/08 00:51:21;;;;;;;23.00;20.38;;;6.40;99.90;;;;;;2084019;28;20031;-70
2022/12/08 00:52:22;;;;;;;22.58;19.88;;;6.40;99.90;;;;;;2078194;28;20022;-70
2022/12/08 00:53:22;;;;;;;23.77;19.23;;;6.40;99.90;;;;;;2076390;28;20021;-70
2022/12/08 00:54:23;;;;;;;21.30;19.17;;;6.40;99.90;;;;;;2077475;28;20032;-70
2022/12/08 00:55:23;;;;;;;21.95;19.67;;;6.40;99.90;;;;;;2075673;28;20018;-70
2022/12/08 00:56:24;;;;;;;25.00;19.75;;;6.40;99.90;;;;;;2075269;28;20043;-70
2022/12/08 00:57:25;;;;;;;24.73;19.80;;;6.40;99.90;;;;;;2076817;28;20033;-70
2022/12/08 00:58:25;;;;;;;22.92;19.52;;;6.40;99.90;;;;;;2077523;28;20643;-70
2022/12/08 00:59:26;;;;;;;22.75;20.40;;;6.40;99.90;;;;;;2075403;28;20025;-70
2022/12/08 01:00:26;;;;;;;21.83;19.52;;;6.40;99.90;;;;;;2077394;28;20517;-70
2022/12/08 01:01:27;;;;;;;21.17;19.08;;;6.40;99.90;;;;;;2076768;28;20068;-70
2022/12/08 01:02:27;;;;;;;24.48;19.98;;;6.40;99.90;;;;;;2076053;28;20056;-70
2022/12/08 01:03:28;;;;;;;21.92;19.73;;;6.40;99.90;;;;;;2083693;28;20020;-70
2022/12/08 01:04:28;;;;;;;22.67;19.92;;;6.40;99.90;;;;;;2083013;28;20029;-70
2022/12/08 01:05:29;;;;;;;23.05;19.23;;;6.40;99.90;;;;;;2076267;28;20063;-70
2022/12/08 01:06:30;;;;;;;21.67;19.33;;;6.40;99.90;;;;;;2077813;28;20681;-70
2022/12/08 01:07:31;;;;;;;21.63;19.48;;;6.40;99.90;;;;;;2076833;28;20025;-70
2022/12/08 01:08:32;;;;;;;22.10;19.77;;;6.40;99.90;;;;;;2075791;28;20029;-70
2022/12/08 01:09:33;;;;;;;23.30;20.95;;;6.40;99.90;;;;;;2077594;28;20022;-70
2022/12/08 01:10:38;;;;;;;22.58;18.80;;;6.40;99.90;;;;;;2076274;28;20148;-70
2022/12/08 01:11:38;;;;;;;21.20;18.95;;;6.40;99.90;;;;;;2077914;28;20493;-70
2022/12/08 01:12:39;;;;;;;21.77;19.40;;;6.40;99.90;;;;;;2076710;28;20370;-70
2022/12/08 01:13:40;;;;;;;21.08;18.92;;;6.40;99.90;;;;;;2076662;28;20769;-70
2022/12/08 01:14:41;;;;;;;21.63;19.50;;;6.40;99.90;;;;;;2076861;28;20021;-70
2022/12/08 01:15:42;;;;;;;20.75;18.73;;;6.40;99.90;;;;;;2074684;28;20105;-70
2022/12/08 01:16:42;;;;;;;21.88;19.58;;;6.40;99.90;;;;;;2075296;28;20083;-70
2022/12/08 01:17:43;;;;;;;20.88;18.73;;;6.40;99.90;;;;;;2075535;28;20044;-70
2022/12/08 01:18:43;;;;;;;22.17;19.77;;;6.40;99.90;;;;;;2075982;28;20037;-70
2022/12/08 01:19:44;;;;;;;20.73;18.52;;;6.40;99.90;;;;;;2077557;28;20029;-70
2022/12/08 01:20:45;;;;;;;21.95;18.77;;;6.40;99.90;;;;;;2076328;28;20061;-70
2022/12/08 01:21:46;;;;;;;21.38;18.08;;;6.40;99.90;;;;;;2076376;28;20018;-70
2022/12/08 01:22:46;;;;;;;21.85;19.42;;;6.40;99.90;;;;;;2076646;28;20820;-70
2022/12/08 01:23:47;;;;;;;22.10;19.75;;;6.40;99.90;;;;;;2077517;28;20021;-70
2022/12/08 01:24:48;;;;;;;22.02;18.60;;;6.40;99.90;;;;;;2076447;28;20030;-70
2022/12/08 01:25:48;;;;;;;20.33;17.95;;;6.40;99.90;;;;;;2077024;28;20067;-70
2022/12/08 01:26:49;;;;;;;21.10;18.98;;;6.40;99.90;;;;;;2077419;28;20021;-70
2022/12/08 01:27:51;;;;;;;23.63;18.73;;;6.40;99.90;;;;;;2077868;28;20025;-70
2022/12/08 01:28:52;;;;;;;19.58;17.55;;;6.40;99.90;;;;;;2075264;28;20032;-70
2022/12/08 01:29:52;;;;;;;19.98;18.00;;;6.30;99.90;;;;;;2074505;28;20033;-70
2022/12/08 01:30:53;;;;;;;22.60;18.05;;;6.30;99.90;;;;;;2076475;28;20532;-70
2022/12/08 01:31:53;;;;;;;20.30;18.27;;;6.30;99.90;;;;;;2074218;28;20025;-70
2022/12/08 01:32:54;;;;;;;20.23;18.00;;;6.30;99.90;;;;;;2076516;28;20033;-70
2022/12/08 01:33:55;;;;;;;22.27;18.25;;;6.30;99.90;;;;;;2075432;28;20017;-70
2022/12/08 01:34:55;;;;;;;22.70;18.38;;;6.30;99.90;;;;;;2076605;28;20025;-70
2022/12/08 01:36:01;;;;;;;21.35;19.10;;;6.30;99.90;;;;;;2076328;28;20041;-70
2022/12/08 01:37:01;;;;;;;20.25;18.10;;;6.30;99.90;;;;;;2076668;28;20108;-70
2022/12/08 01:38:02;;;;;;;20.35;18.13;;;6.30;99.90;;;;;;2076358;28;20033;-70
2022/12/08 01:39:05;;;;;;;20.08;17.92;;;6.30;99.90;;;;;;2074540;28;20623;-70
2022/12/08 01:40:06;;;;;;;20.88;18.30;;;6.30;99.90;;;;;;2076265;28;20032;-70
2022/12/08 01:41:12;;;;;;;19.23;16.88;;;6.30;99.90;;;;;;2075943;28;20147;-70
2022/12/08 01:42:23;;;;;;;19.17;17.02;;;6.40;99.90;;;;;;2076659;28;20559;-70
2022/12/08 01:43:24;;;;;;;19.70;17.08;;;6.40;99.90;;;;;;2076543;28;20033;-70
2022/12/08 01:44:24;;;;;;;20.48;18.42;;;6.40;99.90;;;;;;2076773;28;20808;-70
2022/12/08 01:45:28;;;;;;;18.42;16.63;;;6.40;99.90;;;;;;2075337;28;20067;-70
2022/12/08 01:46:31;;;;;;;19.38;17.38;;;6.40;99.90;;;;;;2075820;28;20064;-70
2022/12/08 01:47:36;;;;;;;19.60;17.65;;;6.40;99.90;;;;;;2075337;28;20490;-70
2022/12/08 01:48:37;;;;;;;19.98;18.05;;;6.40;99.90;;;;;;2074180;28;20088;-70
2022/12/08 01:49:37;;;;;;;20.65;18.25;;;6.40;99.90;;;;;;2077288;28;20013;-70
2022/12/08 01:50:39;;;;;;;21.20;18.60;;;6.40;99.90;;;;;;2076738;28;20030;-70
2022/12/08 01:51:55;;;;;;;21.20;18.30;;;6.40;99.90;;;;;;2075761;28;20025;-70
2022/12/08 01:53:00;;;;;;;24.80;19.83;;;6.40;99.90;;;;;;2076213;28;20058;-70
2022/12/08 01:54:02;;;;;;;20.23;18.13;;;6.40;99.90;;;;;;2076191;28;20389;-70
2022/12/08 01:55:16;;;;;;;23.02;18.58;;;6.40;99.90;;;;;;2074833;28;20052;-70
2022/12/08 01:56:35;;;;;;;21.13;18.92;;;6.40;99.90;;;;;;2077389;28;20425;-70
2022/12/08 01:57:41;;;;;;;20.98;18.85;;;6.40;99.90;;;;;;2077245;28;20040;-70
2022/12/08 01:58:46;;;;;;;21.20;18.88;;;6.40;99.90;;;;;;2075994;28;20030;-70
2022/12/08 01:59:52;;;;;;;20.25;18.15;;;6.40;99.90;;;;;;2076380;28;20037;-70
2022/12/08 02:00:53;;;;;;;21.77;19.55;;;6.40;99.90;;;;;;2075921;28;20030;-70
2022/12/08 02:01:54;;;;;;;20.83;18.73;;;6.40;99.90;;;;;;2075043;28;20029;-70
2022/12/08 02:02:59;;;;;;;20.38;18.27;;;6.40;99.90;;;;;;2077158;28;20493;-70
2022/12/08 02:04:01;;;;;;;21.67;19.33;;;6.40;99.90;;;;;;2076901;28;20053;-70
2022/12/08 02:05:04;;;;;;;20.42;18.30;;;6.40;99.90;;;;;;2074530;28;20057;-70
2022/12/08 02:06:05;;;;;;;20.98;18.77;;;6.40;99.90;;;;;;2075674;28;20036;-70
2022/12/08 02:07:08;;;;;;;20.75;18.75;;;6.40;99.90;;;;;;2075403;28;20096;-70
2022/12/08 02:08:11;;;;;;;22.60;20.35;;;6.40;99.90;;;;;;2077073;28;20104;-70
2022/12/08 02:09:14;;;;;;;22.13;18.50;;;6.40;99.90;;;;;;2076087;28;20079;-70
2022/12/08 02:10:18;;;;;;;25.77;19.65;;;6.40;99.90;;;;;;2076445;28;20017;-70
2022/12/08 02:11:19;;;;;;;21.38;19.35;;;6.40;99.90;;;;;;2075823;28;20068;-70
2022/12/08 02:12:19;;;;;;;22.98;19.95;;;6.40;99.90;;;;;;2076576;28;20034;-70
2022/12/08 02:13:22;;;;;;;22.30;19.90;;;6.40;99.90;;;;;;2075642;28;20517;-70
2022/12/08 02:14:24;;;;;;;21.70;19.42;;;6.40;99.90;;;;;;2077326;28;20032;-70
2022/12/08 02:15:44;;;;;;;23.13;20.63;;;6.40;99.90;;;;;;2075023;28;20060;-70
2022/12/08 02:17:09;;;;;;;22.73;20.33;;;6.30;99.90;;;;;;2075157;28;20583;-70
2022/12/08 02:18:45;;;;;;;22.10;19.73;;;6.30;99.90;;;;;;2076383;28;20759;-70
2022/12/08 02:20:04;;;;;;;21.85;19.58;;;6.30;99.90;;;;;;2076710;28;20069;-70
2022/12/08 02:21:08;;;;;;;22.58;20.13;;;6.30;99.90;;;;;;2076413;28;20022;-70
2022/12/08 02:22:39;;;;;;;23.25;20.83;;;6.20;99.90;;;;;;2076996;28;20060;-70
2022/12/08 02:23:58;;;;;;;23.80;21.40;;;6.20;99.90;;;;;;2076485;28;20029;-70
2022/12/08 02:25:17;;;;;;;23.60;21.13;;;6.20;99.90;;;;;;2073071;28;20028;-70
2022/12/08 02:26:34;;;;;;;24.80;22.13;;;6.20;99.90;;;;;;2073481;28;20719;-70
2022/12/08 02:27:53;;;;;;;24.75;22.23;;;6.20;99.90;;;;;;2076541;28;20045;-70
2022/12/08 02:29:25;;;;;;;24.98;22.52;;;6.20;99.90;;;;;;2075900;28;20032;-70
2022/12/08 02:30:35;;;;;;;24.58;22.17;;;6.20;99.90;;;;;;2077183;28;20030;-70
2022/12/08 02:32:03;;;;;;;30.02;24.20;;;6.20;99.90;;;;;;2076373;28;20132;-70
2022/12/08 02:33:38;;;;;;;24.73;22.20;;;6.20;99.90;;;;;;2082957;28;20625;-70
2022/12/08 02:34:51;;;;;;;26.90;22.23;;;6.20;99.90;;;;;;2080161;28;20029;-70
2022/12/08 02:35:52;;;;;;;25.13;22.52;;;6.20;99.90;;;;;;2076454;28;20728;-70
2022/12/08 02:37:17;;;;;;;25.60;22.67;;;6.20;99.90;;;;;;2075862;28;20339;-70
2022/12/08 02:38:35;;;;;;;25.77;23.10;;;6.20;99.90;;;;;;2076308;28;20088;-70
2022/12/08 02:39:59;;;;;;;26.77;23.98;;;6.20;99.90;;;;;;2076436;28;20068;-70
2022/12/08 02:41:22;;;;;;;28.92;25.65;;;6.20;99.90;;;;;;2075468;28;20029;-70
2022/12/08 02:42:36;;;;;;;26.90;24.00;;;6.20;99.90;;;;;;2074259;28;20033;-70
2022/12/08 02:44:24;;;;;;;26.83;24.15;;;6.20;99.90;;;;;;2072675;28;20025;-70
2022/12/08 02:45:34;;;;;;;27.13;24.23;;;6.20;99.90;;;;;;2070192;28;20033;-70
2022/12/08 02:46:38;;;;;;;;;;;6.20;99.90;;;;;;2075692;28;20426;-70
2022/12/08 02:47:39;;;;;;;27.88;24.75;;;6.10;99.90;;;;;;2075880;28;19951;-70
2022/12/08 02:48:41;;;;;;;27.38;24.42;;;6.20;99.90;;;;;;2072611;28;20888;-70
2022/12/08 02:49:41;;;;;;;27.80;24.15;;;6.20;99.90;;;;;;2076103;28;20025;-70
2022/12/08 02:50:42;;;;;;;29.38;26.05;;;6.20;99.90;;;;;;2077131;28;20476;-70
2022/12/08 02:51:42;;;;;;;28.67;25.70;;;6.20;99.90;;;;;;2076288;28;20030;-70
2022/12/08 02:52:45;;;;;;;27.73;24.58;;;6.30;99.90;;;;;;2074602;28;20087;-70
2022/12/08 02:53:47;;;;;;;30.05;26.75;;;6.30;99.90;;;;;;2075586;28;20032;-70
2022/12/08 02:54:53;;;;;;;30.08;26.48;;;6.30;99.90;;;;;;2074159;28;20026;-70
2022/12/08 02:56:15;;;;;;;29.17;26.17;;;6.30;99.90;;;;;;2075582;28;20032;-70
2022/12/08 02:57:41;;;;;;;30.02;25.58;;;6.30;99.90;;;;;;2076839;28;20088;-70
2022/12/08 02:58:45;;;;;;;30.58;27.33;;;6.20;99.90;;;;;;2074564;28;20044;-70
2022/12/08 03:00:02;;;;;;;27.58;24.67;;;6.20;99.90;;;;;;2074394;28;20041;-70
2022/12/08 03:01:27;;;;;;;29.55;25.55;;;6.20;99.90;;;;;;2076454;28;20466;-70
2022/12/08 03:02:49;;;;;;;28.95;25.20;;;6.20;99.90;;;;;;2074358;28;20029;-70
2022/12/08 03:04:07;;;;;;;31.33;25.65;;;6.30;99.90;;;;;;2076709;28;20025;-70
2022/12/08 03:05:08;;;;;;;28.05;25.08;;;6.20;99.90;;;;;;2076412;28;20022;-70
2022/12/08 03:06:39;;;;;;;29.40;26.15;;;6.20;99.90;;;;;;2077833;28;20028;-70
2022/12/08 03:07:52;;;;;;;30.92;26.00;;;6.30;99.90;;;;;;2076543;28;20071;-70
2022/12/08 03:09:00;;;;;;;28.13;25.10;;;6.20;99.90;;;;;;2075252;28;20021;-70
2022/12/08 03:10:20;;;;;;;29.67;26.63;;;6.20;99.90;;;;;;2076772;28;20135;-70
2022/12/08 03:11:43;;;;;;;32.10;26.90;;;6.20;99.90;;;;;;2076092;28;20508;-70
2022/12/08 03:13:21;;;;;;;32.58;28.50;;;6.20;99.90;;;;;;2076511;28;20041;-70
2022/12/08 03:14:22;;;;;;;32.75;29.27;;;6.20;99.90;;;;;;2067842;28;20030;-70
2022/12/08 03:15:23;;;;;;;32.20;27.20;;;6.20;99.90;;;;;;2060006;28;20037;-70
2022/12/08 03:16:27;;;;;;;29.75;26.17;;;6.20;99.90;;;;;;2055549;28;20494;-70
2022/12/08 03:17:29;;;;;;;31.40;27.55;;;6.20;99.90;;;;;;2075463;28;20691;-70
2022/12/08 03:18:34;;;;;;;30.25;27.23;;;6.20;99.90;;;;;;2074667;28;20021;-70
2022/12/08 03:19:38;;;;;;;33.92;29.05;;;6.20;99.90;;;;;;2074617;28;20067;-70
2022/12/08 03:20:40;;;;;;;32.63;29.13;;;6.30;99.90;;;;;;2076561;28;20116;-70
2022/12/08 03:21:45;;;;;;;33.45;29.95;;;6.30;99.90;;;;;;2076785;28;20120;-70
2022/12/08 03:22:48;;;;;;;32.83;29.38;;;6.30;99.90;;;;;;2076002;28;20281;-70
2022/12/08 03:23:52;;;;;;;34.78;30.58;;;6.30;99.90;;;;;;2073551;28;20033;-70
2022/12/08 03:24:55;;;;;;;35.03;30.67;;;6.30;99.90;;;;;;2075217;28;20034;-70
2022/12/08 03:26:24;;;;;;;35.50;31.23;;;6.30;99.90;;;;;;2075575;28;20106;-70
2022/12/08 03:27:28;;;;;;;34.05;30.33;;;6.30;99.90;;;;;;2074355;28;20033;-70
2022/12/08 03:28:30;;;;;;;37.20;31.85;;;6.30;99.90;;;;;;2076261;28;20029;-70
2022/12/08 03:29:31;;;;;;;36.30;32.28;;;6.30;99.90;;;;;;2073016;28;20021;-70
2022/12/08 03:30:37;;;;;;;36.03;32.13;;;6.30;99.90;;;;;;2073981;28;20410;-70
2022/12/08 03:31:44;;;;;;;34.30;30.55;;;6.30;99.90;;;;;;2075434;28;20033;-70
2022/12/08 03:33:08;;;;;;;37.33;32.40;;;6.30;99.90;;;;;;2075085;28;20083;-70
2022/12/08 03:34:10;;;;;;;39.15;32.78;;;6.30;99.90;;;;;;2075102;28;20031;-70
2022/12/08 03:35:14;;;;;;;38.63;33.15;;;6.30;99.90;;;;;;2075251;28;20540;-70
2022/12/08 03:36:15;;;;;;;38.50;33.05;;;6.30;99.90;;;;;;2077120;28;20481;-70
2022/12/08 03:37:16;;;;;;;37.60;32.80;;;6.30;99.90;;;;;;2076527;28;20378;-70
2022/12/08 03:38:17;;;;;;;36.42;32.17;;;6.30;99.90;;;;;;2073724;28;20091;-70
2022/12/08 03:39:17;;;;;;;36.78;32.47;;;6.40;99.90;;;;;;2076643;28;20080;-70
2022/12/08 03:40:19;;;;;;;38.58;33.92;;;6.40;99.90;;;;;;2075803;28;21606;-70
2022/12/08 03:41:21;;;;;;;37.55;32.67;;;6.40;99.90;;;;;;2074986;28;20132;-70
2022/12/08 03:42:22;;;;;;;38.20;33.70;;;6.40;99.90;;;;;;2074650;28;20029;-70
2022/12/08 03:43:22;;;;;;;37.58;33.50;;;6.40;99.90;;;;;;2075314;28;20544;-70
2022/12/08 03:44:23;;;;;;;39.50;35.28;;;6.40;99.90;;;;;;2075580;28;20523;-70
2022/12/08 03:45:23;;;;;;;38.47;34.38;;;6.40;99.90;;;;;;2074799;28;20025;-70
2022/12/08 03:46:26;;;;;;;38.13;34.05;;;6.40;99.90;;;;;;2074508;28;20022;-70
2022/12/08 03:47:27;;;;;;;39.88;34.15;;;6.40;99.90;;;;;;2083404;28;20040;-70
2022/12/08 03:48:28;;;;;;;43.83;34.67;;;6.40;99.90;;;;;;2073994;28;20580;-70
2022/12/08 03:49:28;;;;;;;42.53;36.22;;;6.40;99.90;;;;;;2076107;28;20420;-70
2022/12/08 03:50:29;;;;;;;39.88;35.08;;;6.40;99.90;;;;;;2075454;28;20026;-70
2022/12/08 03:51:29;;;;;;;42.17;34.67;;;6.40;99.90;;;;;;2075590;28;20020;-70
2022/12/08 03:52:30;;;;;;;36.95;33.03;;;6.40;99.90;;;;;;2072747;28;20036;-70
2022/12/08 03:53:30;;;;;;;40.88;35.63;;;6.40;99.90;;;;;;2075401;28;20026;-70
2022/12/08 03:54:31;;;;;;;39.45;35.25;;;6.40;99.90;;;;;;2074374;28;20030;-70
2022/12/08 03:55:31;;;;;;;42.13;34.45;;;6.40;99.90;;;;;;2075669;28;20052;-70
2022/12/08 03:56:35;;;;;;;41.35;36.53;;;6.40;99.90;;;;;;2076056;28;20071;-70
2022/12/08 03:57:35;;;;;;;41.38;35.83;;;6.40;99.90;;;;;;2076630;28;20017;-70
2022/12/08 03:58:36;;;;;;;38.67;34.55;;;6.40;99.90;;;;;;2075301;28;20021;-70
2022/12/08 03:59:36;;;;;;;42.10;36.92;;;6.50;99.90;;;;;;2075186;28;20029;-70
2022/12/08 04:00:37;;;;;;;43.67;36.85;;;6.50;99.90;;;;;;2075665;28;20026;-70
2022/12/08 04:01:37;;;;;;;42.65;36.63;;;6.50;99.90;;;;;;2085410;28;20029;-72
2022/12/08 04:02:38;;;;;;;40.88;35.30;;;6.50;99.90;;;;;;2083017;28;20942;-70
2022/12/08 04:03:38;;;;;;;41.05;35.05;;;6.50;99.90;;;;;;2073281;28;20017;-70
2022/12/08 04:04:39;;;;;;;40.25;35.90;;;6.50;99.90;;;;;;2074805;28;20034;-70
2022/12/08 04:05:39;;;;;;;39.38;33.38;;;6.50;99.90;;;;;;2073946;28;20032;-70
2022/12/08 04:06:40;;;;;;;42.17;37.00;;;6.50;99.90;;;;;;2075676;28;20401;-70
2022/12/08 04:07:40;;;;;;;42.67;36.58;;;6.50;99.90;;;;;;2075856;28;20108;-70
2022/12/08 04:08:41;;;;;;;44.00;35.22;;;6.50;99.90;;;;;;2074769;28;20021;-70
2022/12/08 04:09:42;;;;;;;42.25;36.05;;;6.50;99.90;;;;;;2074222;28;20072;-70
2022/12/08 04:10:42;;;;;;;42.72;36.65;;;6.50;99.90;;;;;;2076517;28;20107;-70
2022/12/08 04:11:43;;;;;;;38.95;34.72;;;6.50;99.90;;;;;;2075695;28;20080;-70
2022/12/08 04:12:43;;;;;;;40.47;36.15;;;6.50;99.90;;;;;;2074958;28;20063;-70
2022/12/08 04:13:44;;;;;;;43.38;35.60;;;6.50;99.90;;;;;;2077119;28;20390;-70
2022/12/08 04:14:45;;;;;;;43.03;37.40;;;6.40;99.90;;;;;;2076262;28;20052;-70
2022/12/08 04:15:47;;;;;;;40.83;36.20;;;6.40;99.90;;;;;;2077153;28;20246;-70
2022/12/08 04:16:47;;;;;;;43.55;36.20;;;6.40;99.90;;;;;;2077414;28;20057;-70
2022/12/08 04:17:48;;;;;;;39.88;35.35;;;6.40;99.90;;;;;;2078285;28;20022;-70
2022/12/08 04:18:49;;;;;;;41.58;36.50;;;6.40;99.90;;;;;;2085381;28;20444;-70
2022/12/08 04:19:49;;;;;;;40.88;35.80;;;6.40;99.90;;;;;;2084069;28;20017;-70
2022/12/08 04:20:50;;;;;;;39.28;35.13;;;6.40;99.90;;;;;;2075880;28;20049;-70
2022/12/08 04:21:50;;;;;;;40.80;33.80;;;6.40;99.90;;;;;;2078235;28;20032;-70
2022/12/08 04:22:51;;;;;;;39.85;35.53;;;6.40;99.90;;;;;;2078224;28;20026;-70
2022/12/08 04:23:51;;;;;;;38.28;34.15;;;6.40;99.90;;;;;;2076937;28;20030;-70
2022/12/08 04:24:52;;;;;;;39.75;34.88;;;6.40;99.90;;;;;;2078155;28;20604;-70
2022/12/08 04:25:52;;;;;;;40.75;36.30;;;6.40;99.90;;;;;;2077840;28;20034;-70
2022/12/08 04:26:53;;;;;;;38.17;32.80;;;6.40;99.90;;;;;;2078595;28;20024;-70
2022/12/08 04:27:55;;;;;;;37.58;33.33;;;6.40;99.90;;;;;;2076486;28;20033;-70
2022/12/08 04:28:55;;;;;;;39.03;34.17;;;6.40;99.90;;;;;;2076859;28;20022;-70
2022/12/08 04:29:56;;;;;;;37.90;33.78;;;6.40;99.90;;;;;;2078553;28;20041;-70
2022/12/08 04:30:56;;;;;;;37.15;31.98;;;6.40;99.90;;;;;;2074819;28;20041;-70
2022/12/08 04:31:57;;;;;;;35.78;31.92;;;6.40;99.90;;;;;;2075738;28;20429;-70
2022/12/08 04:32:57;;;;;;;35.85;32.05;;;6.40;99.90;;;;;;2077761;28;20104;-70
2022/12/08 04:33:58;;;;;;;33.58;29.98;;;6.40;99.90;;;;;;2077114;28;20034;-70
2022/12/08 04:34:59;;;;;;;35.85;31.08;;;6.40;99.90;;;;;;2077153;28;20022;-70
2022/12/08 04:35:59;;;;;;;36.72;32.90;;;6.40;99.90;;;;;;2077237;28;20029;-70
2022/12/08 04:37:00;;;;;;;36.22;30.30;;;6.40;99.90;;;;;;2076349;28;20053;-70
2022/12/08 04:38:01;;;;;;;38.55;32.88;;;6.40;99.90;;;;;;2076628;28;20052;-70
2022/12/08 04:39:02;;;;;;;35.25;30.13;;;6.40;99.90;;;;;;2076548;28;20156;-70
2022/12/08 04:40:03;;;;;;;37.35;31.00;;;6.40;99.90;;;;;;2077775;28;20033;-70
2022/12/08 04:41:04;;;;;;;36.30;32.35;;;6.40;99.90;;;;;;2077259;28;20026;-70
2022/12/08 04:42:04;;;;;;;34.00;30.08;;;6.40;99.90;;;;;;2075513;28;20045;-70
2022/12/08 04:43:05;;;;;;;34.53;30.23;;;6.40;99.90;;;;;;2077659;28;20028;-70
2022/12/08 04:44:06;;;;;;;35.50;31.05;;;6.40;99.90;;;;;;2076055;28;20029;-70
2022/12/08 04:45:06;;;;;;;34.10;30.00;;;6.40;99.90;;;;;;2076074;28;20025;-70
2022/12/08 04:46:08;;;;;;;33.88;30.38;;;6.40;99.90;;;;;;2077818;28;20497;-70
2022/12/08 04:47:09;;;;;;;34.33;29.20;;;6.40;99.90;;;;;;2077724;28;20143;-70
2022/12/08 04:48:12;;;;;;;33.65;29.88;;;6.40;99.90;;;;;;2076198;28;20038;-70
2022/12/08 04:49:12;;;;;;;34.22;30.73;;;6.40;99.90;;;;;;2076540;28;20669;-70
2022/12/08 04:50:13;;;;;;;33.17;29.65;;;6.40;99.90;;;;;;2077450;28;20698;-70
2022/12/08 04:51:16;;;;;;;32.40;29.08;;;6.50;99.90;;;;;;2076522;28;20025;-70
2022/12/08 04:52:16;;;;;;;31.45;28.05;;;6.50;99.90;;;;;;2069391;28;20042;-70
2022/12/08 04:53:18;;;;;;;31.75;28.50;;;6.40;99.90;;;;;;2077976;28;20784;-70
2022/12/08 04:54:19;;;;;;;32.90;29.33;;;6.40;99.90;;;;;;2078175;28;20021;-70
2022/12/08 04:55:19;;;;;;;31.67;28.27;;;6.40;99.90;;;;;;2075939;28;20112;-70
2022/12/08 04:56:20;;;;;;;31.58;28.38;;;6.40;99.90;;;;;;2077630;28;20060;-70
2022/12/08 04:57:20;;;;;;;31.85;28.38;;;6.50;99.90;;;;;;2076133;28;20033;-70
2022/12/08 04:58:21;;;;;;;32.45;28.30;;;6.40;99.90;;;;;;2078140;28;20025;-70
2022/12/08 04:59:22;;;;;;;32.67;29.38;;;6.40;99.90;;;;;;2075142;28;20107;-70
2022/12/08 05:00:22;;;;;;;31.02;27.70;;;6.40;99.90;;;;;;2076384;28;20113;-70
2022/12/08 05:01:23;;;;;;;33.85;28.85;;;6.40;99.90;;;;;;2077422;28;20014;-70
2022/12/08 05:02:23;;;;;;;32.38;28.02;;;6.40;99.90;;;;;;2076551;28;20053;-70
2022/12/08 05:03:24;;;;;;;31.90;28.33;;;6.40;99.90;;;;;;2076747;28;20017;-70
2022/12/08 05:04:24;;;;;;;32.05;28.65;;;6.40;99.90;;;;;;2076056;28;20412;-70
2022/12/08 05:05:25;;;;;;;32.30;28.90;;;6.40;99.90;;;;;;2076641;28;20135;-70
2022/12/08 05:06:25;;;;;;;32.15;28.65;;;6.40;99.90;;;;;;2077122;28;20444;-70
2022/12/08 05:07:26;;;;;;;32.95;29.35;;;6.40;99.90;;;;;;2086093;28;20025;-70
2022/12/08 05:08:28;;;;;;;30.73;27.52;;;6.40;99.90;;;;;;2084649;28;20017;-70
2022/12/08 05:09:28;;;;;;;30.67;27.30;;;6.40;99.90;;;;;;2076820;28;20129;-70
2022/12/08 05:10:29;;;;;;;31.00;27.70;;;6.40;99.90;;;;;;2076699;28;20033;-70
2022/12/08 05:11:29;;;;;;;27.95;25.15;;;6.40;99.90;;;;;;2076062;28;20110;-70
2022/12/08 05:12:30;;;;;;;28.40;25.52;;;6.40;99.90;;;;;;2075304;28;20069;-70
2022/12/08 05:13:31;;;;;;;30.00;26.80;;;6.40;99.90;;;;;;2076588;28;20082;-70
2022/12/08 05:14:31;;;;;;;29.05;25.98;;;6.40;99.90;;;;;;2072775;28;20732;-70
2022/12/08 05:15:32;;;;;;;29.33;26.25;;;6.40;99.90;;;;;;2073624;28;20064;-70
2022/12/08 05:16:32;;;;;;;29.70;26.42;;;6.40;99.90;;;;;;2077441;28;20021;-70
2022/12/08 05:17:33;;;;;;;28.42;25.40;;;6.40;99.90;;;;;;2076571;28;20034;-70
2022/12/08 05:18:34;;;;;;;27.30;24.42;;;6.40;99.90;;;;;;2076895;28;20041;-70
2022/12/08 05:19:34;;;;;;;27.75;24.95;;;6.40;99.90;;;;;;2076697;28;20061;-70
2022/12/08 05:20:35;;;;;;;27.70;24.90;;;6.40;99.90;;;;;;2073026;28;20036;-70
2022/12/08 05:21:36;;;;;;;27.10;24.10;;;6.40;99.90;;;;;;2075717;28;20040;-70
2022/12/08 05:22:36;;;;;;;26.50;23.85;;;6.40;99.90;;;;;;2075254;28;20045;-70
2022/12/08 05:23:37;;;;;;;28.15;23.80;;;6.40;99.90;;;;;;2074775;28;20712;-70
2022/12/08 05:24:37;;;;;;;27.30;24.15;;;6.40;99.90;;;;;;2076672;28;20032;-70
2022/12/08 05:25:38;;;;;;;27.15;24.25;;;6.40;99.90;;;;;;2076293;28;20021;-70
2022/12/08 05:26:38;;;;;;;27.50;24.73;;;6.40;99.90;;;;;;2076586;28;20029;-70
2022/12/08 05:27:39;;;;;;;27.65;24.05;;;6.40;99.90;;;;;;2076244;28;20057;-70
2022/12/08 05:28:39;;;;;;;25.85;23.35;;;6.40;99.90;;;;;;2075439;28;20505;-70
2022/12/08 05:29:40;;;;;;;26.25;23.60;;;6.30;99.90;;;;;;2075875;28;20049;-70
2022/12/08 05:30:41;;;;;;;25.27;22.70;;;6.30;99.90;;;;;;2076292;28;20028;-70
2022/12/08 05:31:41;;;;;;;27.98;25.15;;;6.30;99.90;;;;;;2076089;28;20407;-70
2022/12/08 05:32:42;;;;;;;26.40;23.77;;;6.30;99.90;;;;;;2074814;28;20083;-70